sensor_id;sensor_type;location;lat;lon;timestamp;noise_LAeq;noise_LA_min;noise_LA_max;noise_LA01;noise_LA95
72028;Laerm;59781;52.090;5.030;2023-02-15T00:02:14;40.99;38.77;51.53;;
72028;Laerm;59781;52.090;5.030;2023-02-15T00:04:40;41.16;38.46;58.63;;
72028;Laerm;59781;52.090;5.030;2023-02-15T00:07:15;40.37;37.77;51.14;;
72028;Laerm;59781;52.090;5.030;2023-02-15T00:09:41;40.32;37.81;51.07;;
72028;Laerm;59781;52.090;5.030;2023-02-15T00:12:09;40.60;37.79;45.02;;
72028;Laerm;59781;52.090;5.030;2023-02-15T00:14:35;40.41;37.77;49.47;;
72028;Laerm;59781;52.090;5.030;2023-02-15T00:17:01;41.52;38.12;46.15;;
72028;Laerm;59781;52.090;5.030;2023-02-15T00:19:27;41.33;38.25;46.68;;
72028;Laerm;59781;52.090;5.030;2023-02-15T00:21:52;40.36;37.45;48.32;;
72028;Laerm;59781;52.090;5.030;2023-02-15T00:24:19;42.58;37.97;55.00;;
72028;Laerm;59781;52.090;5.030;2023-02-15T00:26:47;40.79;38.09;44.67;;
72028;Laerm;59781;52.090;5.030;2023-02-15T00:29:16;40.66;38.02;43.21;;
72028;Laerm;59781;52.090;5.030;2023-02-15T00:31:43;39.97;37.81;42.01;;
72028;Laerm;59781;52.090;5.030;2023-02-15T00:34:22;40.87;37.76;49.03;;
72028;Laerm;59781;52.090;5.030;2023-02-15T00:36:49;40.21;37.99;44.37;;
72028;Laerm;59781;52.090;5.030;2023-02-15T00:39:16;39.64;37.55;42.05;;
72028;Laerm;59781;52.090;5.030;2023-02-15T00:41:44;40.47;37.47;43.26;;
72028;Laerm;59781;52.090;5.030;2023-02-15T00:44:11;40.52;38.09;46.03;;
72028;Laerm;59781;52.090;5.030;2023-02-15T00:46:37;41.01;37.65;47.67;;
72028;Laerm;59781;52.090;5.030;2023-02-15T00:49:04;40.70;37.75;48.01;;
72028;Laerm;59781;52.090;5.030;2023-02-15T00:51:31;39.93;37.87;42.44;;
72028;Laerm;59781;52.090;5.030;2023-02-15T00:53:57;40.49;38.23;43.47;;
72028;Laerm;59781;52.090;5.030;2023-02-15T00:56:23;40.81;38.04;43.11;;
72028;Laerm;59781;52.090;5.030;2023-02-15T00:58:49;40.84;38.03;43.47;;
72028;Laerm;59781;52.090;5.030;2023-02-15T01:01:18;40.69;37.57;54.16;;
72028;Laerm;59781;52.090;5.030;2023-02-15T01:03:46;40.25;37.87;47.08;;
72028;Laerm;59781;52.090;5.030;2023-02-15T01:06:16;39.64;37.68;43.33;;
72028;Laerm;59781;52.090;5.030;2023-02-15T01:08:46;39.93;37.64;43.04;;
72028;Laerm;59781;52.090;5.030;2023-02-15T01:11:19;41.46;38.36;50.37;;
72028;Laerm;59781;52.090;5.030;2023-02-15T01:13:54;41.46;38.69;48.04;;
72028;Laerm;59781;52.090;5.030;2023-02-15T01:16:24;40.54;38.11;43.96;;
72028;Laerm;59781;52.090;5.030;2023-02-15T01:18:52;40.11;37.99;42.87;;
72028;Laerm;59781;52.090;5.030;2023-02-15T01:21:24;40.44;38.20;42.86;;
72028;Laerm;59781;52.090;5.030;2023-02-15T01:23:52;40.10;37.96;42.55;;
72028;Laerm;59781;52.090;5.030;2023-02-15T01:26:19;40.33;37.97;42.49;;
72028;Laerm;59781;52.090;5.030;2023-02-15T01:28:47;40.26;37.86;45.09;;
72028;Laerm;59781;52.090;5.030;2023-02-15T01:31:21;40.44;38.18;43.57;;
72028;Laerm;59781;52.090;5.030;2023-02-15T01:33:50;41.80;38.71;45.73;;
72028;Laerm;59781;52.090;5.030;2023-02-15T01:36:17;40.85;38.17;44.26;;
72028;Laerm;59781;52.090;5.030;2023-02-15T01:38:43;40.32;37.78;42.92;;
72028;Laerm;59781;52.090;5.030;2023-02-15T01:41:11;41.19;38.55;46.55;;
72028;Laerm;59781;52.090;5.030;2023-02-15T01:44:01;40.81;37.66;44.39;;
72028;Laerm;59781;52.090;5.030;2023-02-15T01:46:42;41.05;38.52;45.69;;
72028;Laerm;59781;52.090;5.030;2023-02-15T01:49:21;41.58;38.54;49.64;;
72028;Laerm;59781;52.090;5.030;2023-02-15T01:51:53;40.52;38.22;48.63;;
72028;Laerm;59781;52.090;5.030;2023-02-15T01:54:32;40.73;38.18;44.95;;
72028;Laerm;59781;52.090;5.030;2023-02-15T01:57:14;41.20;38.16;44.94;;
72028;Laerm;59781;52.090;5.030;2023-02-15T01:59:51;41.02;38.15;45.66;;
72028;Laerm;59781;52.090;5.030;2023-02-15T02:02:20;41.80;38.69;46.97;;
72028;Laerm;59781;52.090;5.030;2023-02-15T02:04:59;41.66;38.69;45.41;;
72028;Laerm;59781;52.090;5.030;2023-02-15T02:07:41;41.49;38.00;46.88;;
72028;Laerm;59781;52.090;5.030;2023-02-15T02:10:15;41.23;38.10;48.67;;
72028;Laerm;59781;52.090;5.030;2023-02-15T02:12:46;41.02;37.96;45.67;;
72028;Laerm;59781;52.090;5.030;2023-02-15T02:15:15;41.10;37.89;45.67;;
72028;Laerm;59781;52.090;5.030;2023-02-15T02:17:51;40.77;37.88;45.64;;
72028;Laerm;59781;52.090;5.030;2023-02-15T02:20:55;41.30;38.55;50.28;;
72028;Laerm;59781;52.090;5.030;2023-02-15T02:26:54;40.11;38.01;43.55;;
72028;Laerm;59781;52.090;5.030;2023-02-15T02:38:58;40.53;38.03;43.75;;
72028;Laerm;59781;52.090;5.030;2023-02-15T02:41:44;41.20;38.33;47.47;;
72028;Laerm;59781;52.090;5.030;2023-02-15T02:44:52;40.80;37.98;50.08;;
72028;Laerm;59781;52.090;5.030;2023-02-15T02:47:38;41.04;37.40;48.31;;
72028;Laerm;59781;52.090;5.030;2023-02-15T02:50:12;40.40;37.90;44.92;;
72028;Laerm;59781;52.090;5.030;2023-02-15T02:52:58;39.64;37.23;43.29;;
72028;Laerm;59781;52.090;5.030;2023-02-15T02:55:56;39.99;36.88;43.47;;
72028;Laerm;59781;52.090;5.030;2023-02-15T02:58:51;39.38;36.69;42.91;;
72028;Laerm;59781;52.090;5.030;2023-02-15T03:04:47;40.59;37.39;50.16;;
72028;Laerm;59781;52.090;5.030;2023-02-15T03:07:28;40.52;36.86;45.49;;
72028;Laerm;59781;52.090;5.030;2023-02-15T03:10:00;40.58;37.81;46.42;;
72028;Laerm;59781;52.090;5.030;2023-02-15T03:12:33;40.66;37.90;53.53;;
72028;Laerm;59781;52.090;5.030;2023-02-15T03:15:22;41.86;37.83;49.24;;
72028;Laerm;59781;52.090;5.030;2023-02-15T03:18:02;40.67;37.35;45.80;;
72028;Laerm;59781;52.090;5.030;2023-02-15T03:20:33;40.53;37.85;48.72;;
72028;Laerm;59781;52.090;5.030;2023-02-15T03:23:16;40.09;37.57;44.46;;
72028;Laerm;59781;52.090;5.030;2023-02-15T03:25:52;40.46;38.12;43.80;;
72028;Laerm;59781;52.090;5.030;2023-02-15T03:28:45;40.43;38.18;42.83;;
72028;Laerm;59781;52.090;5.030;2023-02-15T03:31:16;40.26;37.74;42.93;;
72028;Laerm;59781;52.090;5.030;2023-02-15T03:34:00;39.75;37.76;42.05;;
72028;Laerm;59781;52.090;5.030;2023-02-15T03:37:17;40.16;38.21;42.37;;
72028;Laerm;59781;52.090;5.030;2023-02-15T03:39:44;40.47;37.78;43.47;;
72028;Laerm;59781;52.090;5.030;2023-02-15T03:42:24;40.60;38.12;43.43;;
72028;Laerm;59781;52.090;5.030;2023-02-15T03:45:22;40.44;37.53;43.27;;
72028;Laerm;59781;52.090;5.030;2023-02-15T03:47:56;40.14;38.07;43.22;;
72028;Laerm;59781;52.090;5.030;2023-02-15T03:50:32;40.49;38.21;43.38;;
72028;Laerm;59781;52.090;5.030;2023-02-15T03:53:24;40.49;38.01;44.44;;
72028;Laerm;59781;52.090;5.030;2023-02-15T03:55:55;40.45;38.38;42.42;;
72028;Laerm;59781;52.090;5.030;2023-02-15T03:58:21;40.89;38.28;44.06;;
72028;Laerm;59781;52.090;5.030;2023-02-15T04:01:40;41.44;38.77;48.39;;
72028;Laerm;59781;52.090;5.030;2023-02-15T04:04:36;40.96;38.74;43.99;;
72028;Laerm;59781;52.090;5.030;2023-02-15T04:07:06;41.36;38.83;45.69;;
72028;Laerm;59781;52.090;5.030;2023-02-15T04:09:32;41.39;38.74;44.92;;
72028;Laerm;59781;52.090;5.030;2023-02-15T04:12:18;41.57;39.15;49.42;;
72028;Laerm;59781;52.090;5.030;2023-02-15T04:14:43;41.85;39.26;45.49;;
72028;Laerm;59781;52.090;5.030;2023-02-15T04:17:28;42.41;38.99;45.98;;
72028;Laerm;59781;52.090;5.030;2023-02-15T04:19:54;42.46;39.29;46.65;;
72028;Laerm;59781;52.090;5.030;2023-02-15T04:22:38;42.18;39.39;46.09;;
72028;Laerm;59781;52.090;5.030;2023-02-15T04:25:23;41.95;39.40;45.46;;
72028;Laerm;59781;52.090;5.030;2023-02-15T04:27:52;41.73;39.50;44.29;;
72028;Laerm;59781;52.090;5.030;2023-02-15T04:30:24;41.99;38.86;57.69;;
72028;Laerm;59781;52.090;5.030;2023-02-15T04:32:51;41.20;38.78;50.08;;
72028;Laerm;59781;52.090;5.030;2023-02-15T04:35:17;41.60;39.27;48.91;;
72028;Laerm;59781;52.090;5.030;2023-02-15T04:37:43;41.96;39.75;52.63;;
72028;Laerm;59781;52.090;5.030;2023-02-15T04:40:12;42.13;39.87;44.28;;
72028;Laerm;59781;52.090;5.030;2023-02-15T04:42:39;42.87;40.45;48.91;;
72028;Laerm;59781;52.090;5.030;2023-02-15T04:45:06;42.82;40.06;45.55;;
72028;Laerm;59781;52.090;5.030;2023-02-15T04:47:32;43.54;40.38;48.14;;
72028;Laerm;59781;52.090;5.030;2023-02-15T04:49:58;43.36;39.85;46.57;;
72028;Laerm;59781;52.090;5.030;2023-02-15T04:52:24;43.67;40.40;47.08;;
72028;Laerm;59781;52.090;5.030;2023-02-15T04:54:49;43.45;40.98;47.56;;
72028;Laerm;59781;52.090;5.030;2023-02-15T04:57:15;43.70;40.94;46.89;;
72028;Laerm;59781;52.090;5.030;2023-02-15T04:59:41;43.86;41.21;50.60;;
72028;Laerm;59781;52.090;5.030;2023-02-15T05:02:07;43.89;41.40;49.01;;
72028;Laerm;59781;52.090;5.030;2023-02-15T05:04:32;43.88;41.14;48.17;;
72028;Laerm;59781;52.090;5.030;2023-02-15T05:06:58;44.55;41.49;47.35;;
72028;Laerm;59781;52.090;5.030;2023-02-15T05:09:24;45.26;42.49;49.69;;
72028;Laerm;59781;52.090;5.030;2023-02-15T05:11:50;45.02;42.54;48.39;;
72028;Laerm;59781;52.090;5.030;2023-02-15T05:14:15;45.25;42.39;49.74;;
72028;Laerm;59781;52.090;5.030;2023-02-15T05:16:41;44.81;41.61;49.02;;
72028;Laerm;59781;52.090;5.030;2023-02-15T05:19:07;46.49;42.87;54.86;;
72028;Laerm;59781;52.090;5.030;2023-02-15T05:21:33;44.89;42.43;51.63;;
72028;Laerm;59781;52.090;5.030;2023-02-15T05:23:59;45.44;42.75;66.34;;
72028;Laerm;59781;52.090;5.030;2023-02-15T05:26:25;44.95;42.43;47.85;;
72028;Laerm;59781;52.090;5.030;2023-02-15T05:29:10;45.96;42.88;51.20;;
72028;Laerm;59781;52.090;5.030;2023-02-15T05:31:36;45.86;43.28;48.57;;
72028;Laerm;59781;52.090;5.030;2023-02-15T05:34:03;45.65;42.62;61.58;;
72028;Laerm;59781;52.090;5.030;2023-02-15T05:36:29;45.61;43.08;47.73;;
72028;Laerm;59781;52.090;5.030;2023-02-15T05:38:55;45.79;42.74;48.74;;
72028;Laerm;59781;52.090;5.030;2023-02-15T05:41:21;45.93;43.52;48.45;;
72028;Laerm;59781;52.090;5.030;2023-02-15T05:43:47;46.13;43.58;49.92;;
72028;Laerm;59781;52.090;5.030;2023-02-15T05:46:13;45.96;43.47;48.63;;
72028;Laerm;59781;52.090;5.030;2023-02-15T05:48:38;45.77;42.57;48.90;;
72028;Laerm;59781;52.090;5.030;2023-02-15T05:51:08;45.56;42.70;49.32;;
72028;Laerm;59781;52.090;5.030;2023-02-15T05:53:37;46.55;42.96;54.87;;
72028;Laerm;59781;52.090;5.030;2023-02-15T05:56:07;46.88;43.41;55.02;;
72028;Laerm;59781;52.090;5.030;2023-02-15T05:58:39;46.78;43.66;64.30;;
72028;Laerm;59781;52.090;5.030;2023-02-15T06:01:15;45.68;43.13;52.92;;
72028;Laerm;59781;52.090;5.030;2023-02-15T06:03:43;46.64;43.27;57.21;;
72028;Laerm;59781;52.090;5.030;2023-02-15T06:06:10;46.83;43.73;58.65;;
72028;Laerm;59781;52.090;5.030;2023-02-15T06:08:37;46.66;43.41;56.12;;
72028;Laerm;59781;52.090;5.030;2023-02-15T06:11:05;47.18;44.55;50.49;;
72028;Laerm;59781;52.090;5.030;2023-02-15T06:13:32;46.85;43.82;50.89;;
72028;Laerm;59781;52.090;5.030;2023-02-15T06:15:58;47.14;43.38;59.30;;
72028;Laerm;59781;52.090;5.030;2023-02-15T06:18:24;47.68;44.36;51.15;;
72028;Laerm;59781;52.090;5.030;2023-02-15T06:20:50;47.62;44.45;51.50;;
72028;Laerm;59781;52.090;5.030;2023-02-15T06:23:16;47.84;44.84;56.19;;
72028;Laerm;59781;52.090;5.030;2023-02-15T06:25:41;48.06;44.59;52.69;;
72028;Laerm;59781;52.090;5.030;2023-02-15T06:28:07;47.96;44.68;60.98;;
72028;Laerm;59781;52.090;5.030;2023-02-15T06:30:33;48.64;44.48;58.14;;
72028;Laerm;59781;52.090;5.030;2023-02-15T06:32:59;46.41;43.66;50.06;;
72028;Laerm;59781;52.090;5.030;2023-02-15T06:35:25;46.36;43.81;56.16;;
72028;Laerm;59781;52.090;5.030;2023-02-15T06:37:50;46.59;43.73;53.04;;
72028;Laerm;59781;52.090;5.030;2023-02-15T06:40:17;46.84;44.30;62.03;;
72028;Laerm;59781;52.090;5.030;2023-02-15T06:42:43;46.77;44.21;49.80;;
72028;Laerm;59781;52.090;5.030;2023-02-15T06:45:10;49.72;44.98;64.64;;
72028;Laerm;59781;52.090;5.030;2023-02-15T06:47:36;48.19;45.08;60.36;;
72028;Laerm;59781;52.090;5.030;2023-02-15T06:50:04;48.58;45.81;54.66;;
72028;Laerm;59781;52.090;5.030;2023-02-15T06:52:30;48.82;44.94;63.20;;
72028;Laerm;59781;52.090;5.030;2023-02-15T06:54:56;48.90;45.67;56.32;;
72028;Laerm;59781;52.090;5.030;2023-02-15T06:57:22;49.08;45.99;57.55;;
72028;Laerm;59781;52.090;5.030;2023-02-15T06:59:47;48.85;45.83;53.67;;
72028;Laerm;59781;52.090;5.030;2023-02-15T07:02:14;49.49;45.51;65.89;;
72028;Laerm;59781;52.090;5.030;2023-02-15T07:04:40;48.70;45.39;54.73;;
72028;Laerm;59781;52.090;5.030;2023-02-15T07:07:10;49.41;46.45;61.93;;
72028;Laerm;59781;52.090;5.030;2023-02-15T07:09:36;49.95;46.46;63.46;;
72028;Laerm;59781;52.090;5.030;2023-02-15T07:12:02;50.18;46.47;63.35;;
72028;Laerm;59781;52.090;5.030;2023-02-15T07:14:46;49.45;46.61;58.21;;
72028;Laerm;59781;52.090;5.030;2023-02-15T07:17:12;49.13;46.10;60.85;;
72028;Laerm;59781;52.090;5.030;2023-02-15T07:19:38;49.83;46.72;54.73;;
72028;Laerm;59781;52.090;5.030;2023-02-15T07:22:03;52.31;46.31;82.91;;
72028;Laerm;59781;52.090;5.030;2023-02-15T07:24:30;48.87;45.79;57.51;;
72028;Laerm;59781;52.090;5.030;2023-02-15T07:26:56;49.33;45.90;62.85;;
72028;Laerm;59781;52.090;5.030;2023-02-15T07:29:24;50.08;46.36;65.03;;
72028;Laerm;59781;52.090;5.030;2023-02-15T07:31:50;48.85;45.91;59.73;;
72028;Laerm;59781;52.090;5.030;2023-02-15T07:34:15;48.94;45.38;58.86;;
72028;Laerm;59781;52.090;5.030;2023-02-15T07:36:41;51.53;46.51;69.43;;
72028;Laerm;59781;52.090;5.030;2023-02-15T07:39:10;48.32;45.23;55.00;;
72028;Laerm;59781;52.090;5.030;2023-02-15T07:41:36;48.12;45.29;52.57;;
72028;Laerm;59781;52.090;5.030;2023-02-15T07:44:14;48.64;45.53;62.00;;
72028;Laerm;59781;52.090;5.030;2023-02-15T07:46:40;48.13;44.61;62.70;;
72028;Laerm;59781;52.090;5.030;2023-02-15T07:49:07;48.64;45.40;58.35;;
72028;Laerm;59781;52.090;5.030;2023-02-15T07:51:33;50.72;44.95;70.78;;
72028;Laerm;59781;52.090;5.030;2023-02-15T07:53:59;48.96;45.43;61.27;;
72028;Laerm;59781;52.090;5.030;2023-02-15T07:56:25;48.13;45.43;60.08;;
72028;Laerm;59781;52.090;5.030;2023-02-15T07:58:51;48.60;45.07;56.62;;
72028;Laerm;59781;52.090;5.030;2023-02-15T08:01:25;48.79;45.08;58.49;;
72028;Laerm;59781;52.090;5.030;2023-02-15T08:03:53;54.89;45.14;87.52;;
72028;Laerm;59781;52.090;5.030;2023-02-15T08:06:25;48.69;45.51;62.49;;
72028;Laerm;59781;52.090;5.030;2023-02-15T08:08:51;50.76;45.21;82.01;;
72028;Laerm;59781;52.090;5.030;2023-02-15T08:11:27;52.26;44.69;81.88;;
72028;Laerm;59781;52.090;5.030;2023-02-15T08:14:20;51.85;43.50;72.47;;
72028;Laerm;59781;52.090;5.030;2023-02-15T08:16:50;47.00;44.55;52.32;;
72028;Laerm;59781;52.090;5.030;2023-02-15T08:19:30;47.39;44.34;58.74;;
72028;Laerm;59781;52.090;5.030;2023-02-15T08:22:01;49.88;44.86;61.95;;
72028;Laerm;59781;52.090;5.030;2023-02-15T08:24:32;48.53;44.93;64.65;;
72028;Laerm;59781;52.090;5.030;2023-02-15T08:26:58;48.13;45.23;66.81;;
72028;Laerm;59781;52.090;5.030;2023-02-15T08:29:27;48.94;45.12;69.54;;
72028;Laerm;59781;52.090;5.030;2023-02-15T08:32:05;48.60;44.68;57.52;;
72028;Laerm;59781;52.090;5.030;2023-02-15T08:34:37;47.62;44.25;61.20;;
72028;Laerm;59781;52.090;5.030;2023-02-15T08:37:03;49.17;44.71;67.81;;
72028;Laerm;59781;52.090;5.030;2023-02-15T08:39:31;49.24;45.43;63.43;;
72028;Laerm;59781;52.090;5.030;2023-02-15T08:41:57;49.22;46.24;53.18;;
72028;Laerm;59781;52.090;5.030;2023-02-15T08:44:23;49.10;46.10;54.58;;
72028;Laerm;59781;52.090;5.030;2023-02-15T08:46:49;50.94;47.54;55.94;;
72028;Laerm;59781;52.090;5.030;2023-02-15T08:49:19;50.36;47.45;57.62;;
72028;Laerm;59781;52.090;5.030;2023-02-15T08:51:47;50.45;47.48;57.59;;
72028;Laerm;59781;52.090;5.030;2023-02-15T08:54:17;50.38;47.37;58.95;;
72028;Laerm;59781;52.090;5.030;2023-02-15T08:56:45;50.52;47.19;58.16;;
72028;Laerm;59781;52.090;5.030;2023-02-15T08:59:22;51.36;48.26;63.43;;
72028;Laerm;59781;52.090;5.030;2023-02-15T09:01:51;52.24;48.89;64.96;;
72028;Laerm;59781;52.090;5.030;2023-02-15T09:04:17;53.02;50.34;59.75;;
72028;Laerm;59781;52.090;5.030;2023-02-15T09:06:46;53.80;49.88;72.55;;
72028;Laerm;59781;52.090;5.030;2023-02-15T09:09:12;53.15;49.63;60.57;;
72028;Laerm;59781;52.090;5.030;2023-02-15T09:11:44;53.52;49.46;67.07;;
72028;Laerm;59781;52.090;5.030;2023-02-15T09:14:17;53.06;49.65;58.73;;
72028;Laerm;59781;52.090;5.030;2023-02-15T09:16:45;53.01;50.22;56.52;;
72028;Laerm;59781;52.090;5.030;2023-02-15T09:19:15;52.76;49.70;59.00;;
72028;Laerm;59781;52.090;5.030;2023-02-15T09:21:41;52.61;49.65;58.26;;
72028;Laerm;59781;52.090;5.030;2023-02-15T09:24:12;52.89;49.58;55.60;;
72028;Laerm;59781;52.090;5.030;2023-02-15T09:26:42;52.07;49.02;59.01;;
72028;Laerm;59781;52.090;5.030;2023-02-15T09:29:10;51.96;49.11;58.72;;
72028;Laerm;59781;52.090;5.030;2023-02-15T09:31:43;52.16;49.04;55.34;;
72028;Laerm;59781;52.090;5.030;2023-02-15T09:34:12;52.26;49.01;55.21;;
72028;Laerm;59781;52.090;5.030;2023-02-15T09:36:40;52.28;48.74;57.62;;
72028;Laerm;59781;52.090;5.030;2023-02-15T09:48:11;51.95;47.65;58.95;;
72028;Laerm;59781;52.090;5.030;2023-02-15T09:56:54;50.61;46.51;60.12;;
72028;Laerm;59781;52.090;5.030;2023-02-15T10:02:53;51.04;47.73;54.93;;
72028;Laerm;59781;52.090;5.030;2023-02-15T10:26:21;53.29;47.10;83.30;;
72028;Laerm;59781;52.090;5.030;2023-02-15T10:28:50;49.06;44.89;67.05;;
72028;Laerm;59781;52.090;5.030;2023-02-15T10:31:47;47.82;43.61;68.96;;
72028;Laerm;59781;52.090;5.030;2023-02-15T10:47:04;48.74;43.57;55.39;;
72028;Laerm;59781;52.090;5.030;2023-02-15T11:01:49;48.97;44.18;62.19;;
72028;Laerm;59781;52.090;5.030;2023-02-15T11:04:43;50.56;44.59;75.83;;
72028;Laerm;59781;52.090;5.030;2023-02-15T11:07:26;48.56;43.41;64.93;;
72028;Laerm;59781;52.090;5.030;2023-02-15T11:10:32;48.78;43.43;72.42;;
72028;Laerm;59781;52.090;5.030;2023-02-15T11:13:10;46.84;42.33;51.40;;
72028;Laerm;59781;52.090;5.030;2023-02-15T11:16:04;47.06;43.00;65.39;;
72028;Laerm;59781;52.090;5.030;2023-02-15T11:18:48;47.54;42.35;70.60;;
72028;Laerm;59781;52.090;5.030;2023-02-15T11:21:27;47.03;42.80;57.62;;
72028;Laerm;59781;52.090;5.030;2023-02-15T11:23:54;50.70;42.99;74.15;;
72028;Laerm;59781;52.090;5.030;2023-02-15T11:26:36;47.87;43.34;73.30;;
72028;Laerm;59781;52.090;5.030;2023-02-15T11:31:59;46.89;42.30;58.59;;
72028;Laerm;59781;52.090;5.030;2023-02-15T11:34:38;44.97;42.30;48.50;;
72028;Laerm;59781;52.090;5.030;2023-02-15T11:37:18;45.44;41.87;52.34;;
72028;Laerm;59781;52.090;5.030;2023-02-15T11:39:45;47.44;42.30;70.31;;
72028;Laerm;59781;52.090;5.030;2023-02-15T11:42:23;45.83;42.15;62.40;;
72028;Laerm;59781;52.090;5.030;2023-02-15T11:45:29;46.51;42.11;64.58;;
72028;Laerm;59781;52.090;5.030;2023-02-15T11:48:00;44.66;41.58;55.66;;
72028;Laerm;59781;52.090;5.030;2023-02-15T11:50:31;45.58;41.55;57.60;;
72028;Laerm;59781;52.090;5.030;2023-02-15T11:53:09;51.96;42.08;76.55;;
72028;Laerm;59781;52.090;5.030;2023-02-15T11:55:36;49.26;41.54;63.91;;
72028;Laerm;59781;52.090;5.030;2023-02-15T12:04:08;45.06;41.27;61.22;;
72028;Laerm;59781;52.090;5.030;2023-02-15T12:06:51;45.89;41.04;59.60;;
72028;Laerm;59781;52.090;5.030;2023-02-15T12:09:46;46.39;41.42;63.09;;
72028;Laerm;59781;52.090;5.030;2023-02-15T12:12:31;45.34;41.77;55.40;;
72028;Laerm;59781;52.090;5.030;2023-02-15T12:15:05;44.94;41.95;59.60;;
72028;Laerm;59781;52.090;5.030;2023-02-15T12:17:52;45.87;41.85;53.60;;
72028;Laerm;59781;52.090;5.030;2023-02-15T12:22:52;45.47;41.73;56.31;;
72028;Laerm;59781;52.090;5.030;2023-02-15T12:25:42;51.00;41.99;70.23;;
72028;Laerm;59781;52.090;5.030;2023-02-15T12:30:56;46.36;42.00;58.23;;
72028;Laerm;59781;52.090;5.030;2023-02-15T12:33:28;47.58;41.49;64.51;;
72028;Laerm;59781;52.090;5.030;2023-02-15T12:36:26;45.23;41.12;58.40;;
72028;Laerm;59781;52.090;5.030;2023-02-15T12:44:26;45.11;41.14;64.24;;
72028;Laerm;59781;52.090;5.030;2023-02-15T12:47:17;45.05;41.32;56.38;;
72028;Laerm;59781;52.090;5.030;2023-02-15T12:50:04;44.90;41.23;56.56;;
72028;Laerm;59781;52.090;5.030;2023-02-15T12:52:30;46.06;41.16;70.14;;
72028;Laerm;59781;52.090;5.030;2023-02-15T12:55:24;44.66;41.07;59.18;;
72028;Laerm;59781;52.090;5.030;2023-02-15T12:58:15;44.86;40.41;54.32;;
72028;Laerm;59781;52.090;5.030;2023-02-15T13:00:41;44.71;40.91;63.03;;
72028;Laerm;59781;52.090;5.030;2023-02-15T13:03:19;44.81;41.35;53.64;;
72028;Laerm;59781;52.090;5.030;2023-02-15T13:05:51;45.33;41.67;62.39;;
72028;Laerm;59781;52.090;5.030;2023-02-15T13:08:27;44.60;41.54;54.66;;
72028;Laerm;59781;52.090;5.030;2023-02-15T13:11:08;43.81;39.83;54.82;;
72028;Laerm;59781;52.090;5.030;2023-02-15T13:13:58;46.83;40.88;67.92;;
72028;Laerm;59781;52.090;5.030;2023-02-15T13:16:36;48.38;40.91;65.83;;
72028;Laerm;59781;52.090;5.030;2023-02-15T13:19:14;54.24;41.19;73.34;;
72028;Laerm;59781;52.090;5.030;2023-02-15T13:21:47;45.41;40.97;54.45;;
72028;Laerm;59781;52.090;5.030;2023-02-15T13:24:41;46.82;40.87;60.25;;
72028;Laerm;59781;52.090;5.030;2023-02-15T13:27:17;47.25;40.96;61.61;;
72028;Laerm;59781;52.090;5.030;2023-02-15T13:29:53;45.02;41.08;60.93;;
72028;Laerm;59781;52.090;5.030;2023-02-15T13:32:31;44.44;40.70;55.87;;
72028;Laerm;59781;52.090;5.030;2023-02-15T13:35:01;50.18;41.21;62.60;;
72028;Laerm;59781;52.090;5.030;2023-02-15T13:40:53;44.88;40.53;58.70;;
72028;Laerm;59781;52.090;5.030;2023-02-15T13:43:34;45.04;40.26;63.62;;
72028;Laerm;59781;52.090;5.030;2023-02-15T13:52:16;43.70;39.76;50.19;;
72028;Laerm;59781;52.090;5.030;2023-02-15T13:55:06;44.95;40.04;55.32;;
72028;Laerm;59781;52.090;5.030;2023-02-15T14:01:00;42.87;40.03;52.70;;
72028;Laerm;59781;52.090;5.030;2023-02-15T14:20:41;46.88;41.10;63.61;;
72028;Laerm;59781;52.090;5.030;2023-02-15T14:32:29;45.67;41.05;70.24;;
72028;Laerm;59781;52.090;5.030;2023-02-15T14:35:03;44.77;40.44;55.23;;
72028;Laerm;59781;52.090;5.030;2023-02-15T14:37:52;44.52;40.90;54.17;;
72028;Laerm;59781;52.090;5.030;2023-02-15T14:40:57;44.32;41.06;56.04;;
72028;Laerm;59781;52.090;5.030;2023-02-15T14:43:59;44.13;40.35;56.52;;
72028;Laerm;59781;52.090;5.030;2023-02-15T14:47:10;46.12;39.80;55.22;;
72028;Laerm;59781;52.090;5.030;2023-02-15T14:49:40;45.28;41.64;55.99;;
72028;Laerm;59781;52.090;5.030;2023-02-15T14:52:08;45.25;41.11;53.75;;
72028;Laerm;59781;52.090;5.030;2023-02-15T14:59:37;45.04;41.47;54.73;;
72028;Laerm;59781;52.090;5.030;2023-02-15T15:04:59;44.82;41.26;52.35;;
72028;Laerm;59781;52.090;5.030;2023-02-15T15:07:44;45.51;41.22;57.92;;
72028;Laerm;59781;52.090;5.030;2023-02-15T15:12:54;45.30;41.40;52.14;;
72028;Laerm;59781;52.090;5.030;2023-02-15T15:23:40;45.56;42.11;58.61;;
72028;Laerm;59781;52.090;5.030;2023-02-15T15:26:30;45.61;42.36;58.17;;
72028;Laerm;59781;52.090;5.030;2023-02-15T15:29:00;46.10;42.80;57.63;;
72028;Laerm;59781;52.090;5.030;2023-02-15T15:31:59;45.33;41.83;59.13;;
72028;Laerm;59781;52.090;5.030;2023-02-15T15:35:04;45.80;42.64;51.21;;
72028;Laerm;59781;52.090;5.030;2023-02-15T15:44:42;46.06;42.21;54.81;;
72028;Laerm;59781;52.090;5.030;2023-02-15T15:50:43;47.27;43.83;60.68;;
72028;Laerm;59781;52.090;5.030;2023-02-15T15:53:24;48.89;43.85;65.14;;
72028;Laerm;59781;52.090;5.030;2023-02-15T15:56:00;47.62;44.15;54.51;;
72028;Laerm;59781;52.090;5.030;2023-02-15T15:58:30;47.35;43.70;61.58;;
72028;Laerm;59781;52.090;5.030;2023-02-15T16:01:08;55.99;43.54;90.41;;
72028;Laerm;59781;52.090;5.030;2023-02-15T16:03:51;51.45;42.94;71.29;;
72028;Laerm;59781;52.090;5.030;2023-02-15T16:06:35;50.78;43.26;70.79;;
72028;Laerm;59781;52.090;5.030;2023-02-15T16:09:16;46.33;43.34;55.66;;
72028;Laerm;59781;52.090;5.030;2023-02-15T16:11:46;45.79;42.33;54.34;;
72028;Laerm;59781;52.090;5.030;2023-02-15T16:14:26;46.38;43.12;57.99;;
72028;Laerm;59781;52.090;5.030;2023-02-15T16:16:59;49.11;43.24;60.43;;
72028;Laerm;59781;52.090;5.030;2023-02-15T16:19:33;47.06;42.92;60.84;;
72028;Laerm;59781;52.090;5.030;2023-02-15T16:22:02;46.38;42.84;63.85;;
72028;Laerm;59781;52.090;5.030;2023-02-15T16:25:13;46.46;43.21;51.57;;
72028;Laerm;59781;52.090;5.030;2023-02-15T16:27:38;46.81;43.39;56.77;;
72028;Laerm;59781;52.090;5.030;2023-02-15T16:30:25;49.12;43.73;67.45;;
72028;Laerm;59781;52.090;5.030;2023-02-15T16:33:13;49.20;43.93;69.99;;
72028;Laerm;59781;52.090;5.030;2023-02-15T16:35:58;54.85;43.45;86.83;;
72028;Laerm;59781;52.090;5.030;2023-02-15T16:41:16;45.41;42.06;57.24;;
72028;Laerm;59781;52.090;5.030;2023-02-15T16:43:48;45.00;41.71;54.99;;
72028;Laerm;59781;52.090;5.030;2023-02-15T16:46:32;45.71;41.13;56.30;;
72028;Laerm;59781;52.090;5.030;2023-02-15T16:49:15;45.13;42.20;50.89;;
72028;Laerm;59781;52.090;5.030;2023-02-15T16:52:03;46.56;42.89;50.83;;
72028;Laerm;59781;52.090;5.030;2023-02-15T16:54:34;50.19;43.31;66.06;;
72028;Laerm;59781;52.090;5.030;2023-02-15T16:57:02;47.57;43.56;55.45;;
72028;Laerm;59781;52.090;5.030;2023-02-15T16:59:32;47.80;44.24;54.06;;
72028;Laerm;59781;52.090;5.030;2023-02-15T17:02:04;46.52;43.29;53.57;;
72028;Laerm;59781;52.090;5.030;2023-02-15T17:04:32;48.55;42.45;61.98;;
72028;Laerm;59781;52.090;5.030;2023-02-15T17:07:12;48.60;43.12;59.92;;
72028;Laerm;59781;52.090;5.030;2023-02-15T17:09:53;48.29;44.63;61.58;;
72028;Laerm;59781;52.090;5.030;2023-02-15T17:12:52;46.58;43.39;56.14;;
72028;Laerm;59781;52.090;5.030;2023-02-15T17:18:06;46.18;43.09;55.18;;